Time;durP1;ratioP1;P1;durP2;ratioP2;P2;SDS_P1;SDS_P2;PMS_P1;PMS_P2;Temp;Humidity;BMP_temperature;BMP_pressure;BME280_temperature;BME280_humidity;BME280_pressure;Samples;Min_cycle;Max_cycle;Signal;HPM_P1;HPM_P2
2023/12/01 00:00:19;;;;;;;0.73;0.70;;;;;;;;;;5112157;28;20367;-74
2023/12/01 00:02:45;;;;;;;0.10;0.10;;;;;;;;;;5112171;28;20019;-74
2023/12/01 00:05:11;;;;;;;0.20;0.20;;;;;;;;;;5111983;28;20402;-74
2023/12/01 00:07:37;;;;;;;0.10;0.10;;;;;;;;;;5111862;28;20094;-74
2023/12/01 00:10:04;;;;;;;0.20;0.20;;;;;;;;;;5111754;28;20057;-73
2023/12/01 00:12:31;;;;;;;0.10;0.10;;;;;;;;;;5111640;28;20039;-71
2023/12/01 00:14:57;;;;;;;0.35;0.25;;;;;;;;;;5111811;28;20510;-73
2023/12/01 00:17:22;;;;;;;0.30;0.30;;;;;;;;;;5114906;28;20020;-73
2023/12/01 00:19:52;;;;;;;0.20;0.20;;;;;;;;;;5115530;28;20051;-73
2023/12/01 00:22:18;;;;;;;0.70;0.52;;;;;;;;;;5115707;28;20027;-73
2023/12/01 00:24:44;;;;;;;0.13;0.13;;;;;;;;;;5115611;28;20386;-73
2023/12/01 00:27:10;;;;;;;0.20;0.20;;;;;;;;;;5115399;28;20448;-74
2023/12/01 00:29:36;;;;;;;1.02;0.63;;;;;;;;;;5115408;28;20043;-74
2023/12/01 00:32:02;;;;;;;0.17;0.17;;;;;;;;;;5115571;28;20102;-73
2023/12/01 00:34:28;;;;;;;0.90;0.90;;;;;;;;;;5115277;28;20466;-74
2023/12/01 00:36:55;;;;;;;2.35;1.52;;;;;;;;;;5096906;28;20546;-73
2023/12/01 00:39:21;;;;;;;0.17;0.17;;;;;;;;;;5097451;28;20047;-73
2023/12/01 00:41:46;;;;;;;0.43;0.43;;;;;;;;;;5115451;28;20474;-73
2023/12/01 00:44:13;;;;;;;0.20;0.20;;;;;;;;;;5115217;28;20106;-74
2023/12/01 00:46:39;;;;;;;0.40;0.40;;;;;;;;;;5096664;28;20027;-74
2023/12/01 00:49:04;;;;;;;0.20;0.20;;;;;;;;;;5115040;28;20412;-73
2023/12/01 00:51:30;;;;;;;4.30;1.00;;;;;;;;;;5114905;28;20040;-73
2023/12/01 00:53:56;;;;;;;0.20;0.20;;;;;;;;;;5097134;28;20063;-74
2023/12/01 00:56:22;;;;;;;0.30;0.30;;;;;;;;;;5096962;28;20072;-74
2023/12/01 00:58:48;;;;;;;0.20;0.20;;;;;;;;;;5114740;28;20173;-73
2023/12/01 01:01:14;;;;;;;0.38;0.38;;;;;;;;;;5114885;28;20023;-73
2023/12/01 01:03:41;;;;;;;0.10;0.10;;;;;;;;;;5114726;28;20016;-74
2023/12/01 01:06:07;;;;;;;0.20;0.20;;;;;;;;;;5096326;28;20039;-74
2023/12/01 01:08:33;;;;;;;1.05;0.38;;;;;;;;;;5113865;28;20055;-74
2023/12/01 01:10:59;;;;;;;0.43;0.30;;;;;;;;;;5114509;28;20486;-74
2023/12/01 01:13:26;;;;;;;0.20;0.20;;;;;;;;;;5114587;28;20034;-73
2023/12/01 01:15:52;;;;;;;2.13;1.60;;;;;;;;;;5114487;28;20031;-74
2023/12/01 01:18:20;;;;;;;0.13;0.13;;;;;;;;;;5114342;28;20046;-74
2023/12/01 01:20:46;;;;;;;2.28;1.23;;;;;;;;;;5095958;28;20024;-74
2023/12/01 01:23:12;;;;;;;0.20;0.20;;;;;;;;;;5114453;28;20043;-73
2023/12/01 01:25:38;;;;;;;0.30;0.30;;;;;;;;;;5096040;28;20028;-74
2023/12/01 01:28:04;;;;;;;0.20;0.20;;;;;;;;;;5114587;28;20064;-74
2023/12/01 01:30:30;;;;;;;0.22;0.22;;;;;;;;;;5114442;28;20080;-73
2023/12/01 01:32:57;;;;;;;0.10;0.10;;;;;;;;;;5114156;28;20118;-74
2023/12/01 01:35:23;;;;;;;0.30;0.30;;;;;;;;;;5114454;28;20110;-73
2023/12/01 01:37:49;;;;;;;0.88;0.88;;;;;;;;;;5114292;28;20576;-74
2023/12/01 01:40:15;;;;;;;0.20;0.20;;;;;;;;;;5114360;28;20023;-74
2023/12/01 01:42:41;;;;;;;0.30;0.30;;;;;;;;;;5114051;28;20478;-74
2023/12/01 01:45:07;;;;;;;0.10;0.10;;;;;;;;;;5114130;28;20032;-74
2023/12/01 01:47:33;;;;;;;0.20;0.20;;;;;;;;;;5113946;28;20024;-74
2023/12/01 01:50:01;;;;;;;2.00;1.90;;;;;;;;;;5113974;28;20398;-73
2023/12/01 01:52:27;;;;;;;1.77;1.55;;;;;;;;;;5113957;28;20425;-73
2023/12/01 01:54:59;;;;;;;0.35;0.35;;;;;;;;;;5095808;28;20032;-73
2023/12/01 01:57:36;;;;;;;0.20;0.20;;;;;;;;;;5113791;28;20077;-74
2023/12/01 02:00:06;;;;;;;2.45;2.33;;;;;;;;;;5113641;28;20435;-73
2023/12/01 02:02:37;;;;;;;0.52;0.52;;;;;;;;;;5113929;28;20130;-73
2023/12/01 02:05:12;;;;;;;5.68;1.45;;;;;;;;;;5114019;28;20024;-74
2023/12/01 02:07:39;;;;;;;0.15;0.15;;;;;;;;;;5095701;28;20608;-74
2023/12/01 02:10:06;;;;;;;0.20;0.20;;;;;;;;;;5113625;28;20390;-74
2023/12/01 02:12:32;;;;;;;0.70;0.65;;;;;;;;;;5113806;28;20032;-73
2023/12/01 02:14:58;;;;;;;0.10;0.10;;;;;;;;;;5114401;28;20115;-73
2023/12/01 02:17:24;;;;;;;0.28;0.25;;;;;;;;;;5113834;28;20035;-73
2023/12/01 02:19:53;;;;;;;0.50;0.50;;;;;;;;;;5079843;28;20035;-74
2023/12/01 02:22:19;;;;;;;5.57;0.50;;;;;;;;;;5117862;28;20059;-73
2023/12/01 02:24:45;;;;;;;0.17;0.17;;;;;;;;;;5117806;28;20102;-74
2023/12/01 02:27:11;;;;;;;0.20;0.20;;;;;;;;;;5117727;28;20114;-74
2023/12/01 02:29:37;;;;;;;0.20;0.20;;;;;;;;;;5099672;28;20042;-74
2023/12/01 02:32:03;;;;;;;0.20;0.20;;;;;;;;;;5118122;28;20030;-74
2023/12/01 02:34:30;;;;;;;0.57;0.57;;;;;;;;;;5117982;28;20035;-73
2023/12/01 02:36:58;;;;;;;0.10;0.10;;;;;;;;;;5117667;28;20019;-74
2023/12/01 02:39:25;;;;;;;0.20;0.20;;;;;;;;;;5117554;28;20076;-73
2023/12/01 02:41:51;;;;;;;0.20;0.20;;;;;;;;;;5117546;28;20039;-73
2023/12/01 02:44:17;;;;;;;2.67;2.53;;;;;;;;;;5117741;28;20374;-74
2023/12/01 02:46:43;;;;;;;16.10;2.90;;;;;;;;;;5117499;28;20016;-73
2023/12/01 02:49:09;;;;;;;0.20;0.20;;;;;;;;;;5117492;28;20106;-74
2023/12/01 02:51:35;;;;;;;0.38;0.38;;;;;;;;;;5117305;28;20046;-73
2023/12/01 02:54:01;;;;;;;0.40;0.40;;;;;;;;;;5117244;28;20015;-73
2023/12/01 02:56:28;;;;;;;0.10;0.10;;;;;;;;;;5133311;27;20062;-74
2023/12/01 02:58:54;;;;;;;0.15;0.15;;;;;;;;;;5137744;27;20035;-73
2023/12/01 03:01:20;;;;;;;0.10;0.10;;;;;;;;;;5137644;27;20023;-74
2023/12/01 03:03:45;;;;;;;0.10;0.10;;;;;;;;;;5137904;27;20038;-73
2023/12/01 03:06:12;;;;;;;0.20;0.20;;;;;;;;;;5137663;27;20038;-73
2023/12/01 03:08:38;;;;;;;0.20;0.20;;;;;;;;;;5115532;28;20082;-74
2023/12/01 03:11:13;;;;;;;0.65;0.45;;;;;;;;;;5117160;28;20415;-73
2023/12/01 03:13:39;;;;;;;0.57;0.47;;;;;;;;;;5115850;28;20046;-73
2023/12/01 03:16:05;;;;;;;0.45;0.45;;;;;;;;;;5115693;28;20110;-73
2023/12/01 03:18:31;;;;;;;1.75;0.70;;;;;;;;;;5116848;27;20032;-74
2023/12/01 03:20:57;;;;;;;1.48;0.52;;;;;;;;;;5116834;28;20111;-73
2023/12/01 03:23:24;;;;;;;3.83;2.38;;;;;;;;;;5116708;28;20023;-73
2023/12/01 03:25:50;;;;;;;2.72;0.57;;;;;;;;;;5116986;28;20374;-73
2023/12/01 03:28:16;;;;;;;0.10;0.10;;;;;;;;;;5115555;28;20072;-73
2023/12/01 03:33:34;;;;;;;3.13;0.43;;;;;;;;;;5046993;28;20032;-74
2023/12/01 03:36:01;;;;;;;0.20;0.20;;;;;;;;;;5075787;28;20028;-73
2023/12/01 03:38:29;;;;;;;0.25;0.25;;;;;;;;;;5075678;28;20025;-73
2023/12/01 03:41:18;;;;;;;0.10;0.10;;;;;;;;;;5074183;28;20040;-74
2023/12/01 03:43:44;;;;;;;0.20;0.20;;;;;;;;;;5075848;28;20029;-73
2023/12/01 03:46:10;;;;;;;0.20;0.20;;;;;;;;;;5075927;28;20028;-73
2023/12/01 03:48:37;;;;;;;0.10;0.10;;;;;;;;;;5074615;28;20040;-73
2023/12/01 03:51:03;;;;;;;0.43;0.43;;;;;;;;;;5075876;28;20044;-73
2023/12/01 03:53:32;;;;;;;0.20;0.20;;;;;;;;;;5074410;28;20468;-74
2023/12/01 03:55:58;;;;;;;0.20;0.20;;;;;;;;;;5075562;28;20024;-73
2023/12/01 03:58:30;;;;;;;0.10;0.10;;;;;;;;;;5075415;28;20038;-72
2023/12/01 04:00:56;;;;;;;0.20;0.20;;;;;;;;;;5074928;28;20388;-73
2023/12/01 04:03:24;;;;;;;0.40;0.40;;;;;;;;;;5080489;28;20038;-72
2023/12/01 04:05:51;;;;;;;2.60;0.37;;;;;;;;;;5091961;28;20035;-73
2023/12/01 04:08:17;;;;;;;0.20;0.20;;;;;;;;;;5092180;28;20041;-73
2023/12/01 04:10:47;;;;;;;0.55;0.55;;;;;;;;;;5112537;28;20027;-73
2023/12/01 04:13:15;;;;;;;0.10;0.10;;;;;;;;;;5112234;28;20063;-74
2023/12/01 04:15:42;;;;;;;0.60;0.40;;;;;;;;;;5108294;28;20016;-73
2023/12/01 04:18:38;;;;;;;0.10;0.10;;;;;;;;;;5091240;28;20051;-74
2023/12/01 04:21:08;;;;;;;0.10;0.10;;;;;;;;;;5089985;28;20043;-72
2023/12/01 04:23:34;;;;;;;0.22;0.22;;;;;;;;;;5098751;28;20024;-71
2023/12/01 04:26:00;;;;;;;0.20;0.20;;;;;;;;;;5106587;28;20479;-73
2023/12/01 04:28:26;;;;;;;0.40;0.40;;;;;;;;;;5111936;28;20064;-73
2023/12/01 04:31:02;;;;;;;0.22;0.22;;;;;;;;;;5111561;28;20028;-73
2023/12/01 04:33:34;;;;;;;0.30;0.20;;;;;;;;;;5111900;28;20034;-74
2023/12/01 04:36:06;;;;;;;0.63;0.40;;;;;;;;;;5111475;28;20209;-73
2023/12/01 04:38:34;;;;;;;8.35;5.93;;;;;;;;;;5111441;28;20038;-74
2023/12/01 04:41:01;;;;;;;0.63;0.63;;;;;;;;;;5111813;28;20031;-73
2023/12/01 04:43:28;;;;;;;11.07;6.80;;;;;;;;;;5105196;28;20516;-72
2023/12/01 04:45:59;;;;;;;0.10;0.10;;;;;;;;;;5091561;28;20028;-72
2023/12/01 04:48:53;;;;;;;0.20;0.20;;;;;;;;;;5095596;28;20180;-74
2023/12/01 04:51:19;;;;;;;0.20;0.20;;;;;;;;;;5106756;28;20039;-73
2023/12/01 04:53:46;;;;;;;0.20;0.20;;;;;;;;;;5111491;28;20034;-73
2023/12/01 04:56:15;;;;;;;0.20;0.20;;;;;;;;;;5110959;28;20039;-74
2023/12/01 04:58:41;;;;;;;0.20;0.20;;;;;;;;;;5092580;28;20034;-73
2023/12/01 05:01:07;;;;;;;0.10;0.10;;;;;;;;;;5111306;28;20118;-73
2023/12/01 05:03:33;;;;;;;0.10;0.10;;;;;;;;;;5109407;28;20024;-74
2023/12/01 05:05:59;;;;;;;0.15;0.15;;;;;;;;;;5110812;28;20030;-74
2023/12/01 05:08:27;;;;;;;0.20;0.20;;;;;;;;;;5074082;28;20437;-74
2023/12/01 05:10:56;;;;;;;3.13;1.45;;;;;;;;;;5090652;28;20024;-74
2023/12/01 05:13:21;;;;;;;0.20;0.20;;;;;;;;;;5090300;28;20467;-72
2023/12/01 05:15:47;;;;;;;0.20;0.20;;;;;;;;;;5090144;28;20030;-72
2023/12/01 05:18:16;;;;;;;0.20;0.20;;;;;;;;;;5090537;28;20382;-74
2023/12/01 05:20:45;;;;;;;0.10;0.10;;;;;;;;;;5103441;28;20053;-74
2023/12/01 05:23:11;;;;;;;0.20;0.20;;;;;;;;;;5091350;28;20064;-74
2023/12/01 05:25:44;;;;;;;0.20;0.20;;;;;;;;;;5104001;28;20070;-74
2023/12/01 05:28:11;;;;;;;0.20;0.20;;;;;;;;;;5085326;28;20471;-74
2023/12/01 05:30:41;;;;;;;0.10;0.10;;;;;;;;;;5090551;28;20027;-74
2023/12/01 05:33:07;;;;;;;0.10;0.10;;;;;;;;;;5081308;28;20118;-74
2023/12/01 05:35:37;;;;;;;0.20;0.20;;;;;;;;;;5110346;28;20103;-73
2023/12/01 05:38:04;;;;;;;0.20;0.20;;;;;;;;;;5104408;28;20032;-74
2023/12/01 05:40:31;;;;;;;0.20;0.20;;;;;;;;;;5095813;28;20032;-71
2023/12/01 05:42:57;;;;;;;0.20;0.20;;;;;;;;;;5089920;28;20031;-72
2023/12/01 05:45:32;;;;;;;0.10;0.10;;;;;;;;;;5090072;28;20503;-73
2023/12/01 05:47:59;;;;;;;0.10;0.10;;;;;;;;;;5110267;28;20033;-73
2023/12/01 05:50:25;;;;;;;0.20;0.20;;;;;;;;;;5110265;28;20027;-73
2023/12/01 05:52:53;;;;;;;0.20;0.20;;;;;;;;;;5110053;28;20024;-74
2023/12/01 05:55:19;;;;;;;0.30;0.30;;;;;;;;;;5109789;28;20023;-73
2023/12/01 05:57:47;;;;;;;0.30;0.30;;;;;;;;;;5104770;28;20032;-72
2023/12/01 06:00:17;;;;;;;0.25;0.25;;;;;;;;;;5106065;28;20051;-73
2023/12/01 06:02:47;;;;;;;0.10;0.10;;;;;;;;;;5110454;28;20502;-73
2023/12/01 06:05:15;;;;;;;0.20;0.20;;;;;;;;;;5093144;28;20033;-74
2023/12/01 06:07:44;;;;;;;0.22;0.22;;;;;;;;;;5089479;28;20028;-71
2023/12/01 06:10:11;;;;;;;0.30;0.30;;;;;;;;;;5089216;28;20403;-74
2023/12/01 06:12:38;;;;;;;0.63;0.50;;;;;;;;;;5096432;28;20023;-74
2023/12/01 06:15:05;;;;;;;1.75;1.65;;;;;;;;;;5104703;28;20027;-74
2023/12/01 06:17:34;;;;;;;0.30;0.30;;;;;;;;;;5087379;28;20129;-74
2023/12/01 06:20:19;;;;;;;0.30;0.30;;;;;;;;;;5107769;28;20043;-72
2023/12/01 06:22:46;;;;;;;0.30;0.30;;;;;;;;;;5108404;28;20028;-74
2023/12/01 06:25:12;;;;;;;0.32;0.32;;;;;;;;;;5109032;28;20038;-73
2023/12/01 06:27:40;;;;;;;0.20;0.20;;;;;;;;;;5109531;28;20427;-73
2023/12/01 06:30:12;;;;;;;0.20;0.20;;;;;;;;;;5109080;28;20391;-74
2023/12/01 06:32:39;;;;;;;1.35;0.30;;;;;;;;;;5108576;28;20024;-74
2023/12/01 06:35:07;;;;;;;1.73;0.68;;;;;;;;;;5102862;28;20057;-73
2023/12/01 06:37:34;;;;;;;0.10;0.10;;;;;;;;;;5109276;28;20079;-74
2023/12/01 06:40:00;;;;;;;0.20;0.20;;;;;;;;;;5109024;28;20035;-74
2023/12/01 06:42:26;;;;;;;0.20;0.20;;;;;;;;;;5108945;28;20466;-74
2023/12/01 06:45:01;;;;;;;0.20;0.20;;;;;;;;;;5108536;28;20046;-73
2023/12/01 06:47:32;;;;;;;0.30;0.30;;;;;;;;;;5109074;28;20161;-74
2023/12/01 06:49:58;;;;;;;0.22;0.22;;;;;;;;;;5108713;28;20074;-74
2023/12/01 06:52:24;;;;;;;1.95;0.80;;;;;;;;;;5108841;28;20028;-73
2023/12/01 06:54:50;;;;;;;6.90;5.97;;;;;;;;;;5108602;28;20024;-72
2023/12/01 06:57:32;;;;;;;0.10;0.10;;;;;;;;;;5096137;28;20380;-73
2023/12/01 07:00:21;;;;;;;4.85;3.35;;;;;;;;;;5091387;28;20043;-73
2023/12/01 07:02:48;;;;;;;13.57;1.48;;;;;;;;;;5091043;28;20386;-74
2023/12/01 07:05:19;;;;;;;0.20;0.20;;;;;;;;;;5109247;28;20027;-74
2023/12/01 07:07:47;;;;;;;1.25;1.15;;;;;;;;;;5083295;28;20028;-74
2023/12/01 07:10:35;;;;;;;0.20;0.20;;;;;;;;;;5082924;28;20128;-73
2023/12/01 07:13:00;;;;;;;0.20;0.20;;;;;;;;;;5098924;28;20158;-74
2023/12/01 07:15:27;;;;;;;0.10;0.10;;;;;;;;;;5094627;28;20043;-74
2023/12/01 07:17:54;;;;;;;0.17;0.17;;;;;;;;;;5074737;28;20029;-74
2023/12/01 07:20:24;;;;;;;2.13;1.92;;;;;;;;;;5088930;28;20108;-72
2023/12/01 07:22:59;;;;;;;0.13;0.13;;;;;;;;;;5112260;28;20377;-74
2023/12/01 07:25:48;;;;;;;0.70;0.70;;;;;;;;;;5112103;28;20054;-73
2023/12/01 07:28:14;;;;;;;1.45;1.45;;;;;;;;;;5112070;28;20020;-73
2023/12/01 07:30:43;;;;;;;0.10;0.10;;;;;;;;;;5112243;28;20028;-73
2023/12/01 07:33:33;;;;;;;0.20;0.20;;;;;;;;;;5112434;28;20028;-73
2023/12/01 07:35:59;;;;;;;11.80;2.92;;;;;;;;;;5111985;28;20038;-72
2023/12/01 07:38:28;;;;;;;0.20;0.20;;;;;;;;;;5111967;28;20059;-73
2023/12/01 07:40:54;;;;;;;0.40;0.40;;;;;;;;;;5113058;28;20031;-75
2023/12/01 07:43:34;;;;;;;0.22;0.22;;;;;;;;;;5094109;28;20066;-74
2023/12/01 07:49:42;;;;;;;0.45;0.45;;;;;;;;;;5111127;28;20092;-73
2023/12/01 07:52:08;;;;;;;0.63;0.63;;;;;;;;;;5109396;28;20023;-74
2023/12/01 07:54:38;;;;;;;0.10;0.10;;;;;;;;;;5090588;28;20086;-74
2023/12/01 07:57:04;;;;;;;;;;;;;;;;;;5119637;27;20123;-74
2023/12/01 07:59:51;;;;;;;0.73;0.60;;;;;;;;;;5112102;28;20398;-74
2023/12/01 08:02:17;;;;;;;0.43;0.30;;;;;;;;;;5091432;28;20153;-74
2023/12/01 08:04:46;;;;;;;0.70;0.70;;;;;;;;;;5092334;28;20499;-74
2023/12/01 08:07:12;;;;;;;0.40;0.40;;;;;;;;;;5073632;28;20039;-73
2023/12/01 08:09:39;;;;;;;0.28;0.22;;;;;;;;;;5098910;28;20081;-74
2023/12/01 08:12:26;;;;;;;0.60;0.38;;;;;;;;;;5103901;27;20365;-74
2023/12/01 08:18:06;;;;;;;0.40;0.20;;;;;;;;;;5088389;28;20040;-72
2023/12/01 08:20:53;;;;;;;8.73;2.90;;;;;;;;;;5110968;28;20034;-73
2023/12/01 08:23:46;;;;;;;0.50;0.50;;;;;;;;;;5030310;28;20047;-73
2023/12/01 08:26:13;;;;;;;10.95;1.88;;;;;;;;;;5113869;27;20367;-73
2023/12/01 08:28:46;;;;;;;2.67;1.48;;;;;;;;;;5132203;27;20026;-74
2023/12/01 08:31:12;;;;;;;0.20;0.20;;;;;;;;;;5129569;27;20424;-73
2023/12/01 08:33:38;;;;;;;0.20;0.20;;;;;;;;;;5105782;28;20028;-72
2023/12/01 08:36:04;;;;;;;1.50;0.85;;;;;;;;;;5100990;28;20035;-73
2023/12/01 08:38:30;;;;;;;1.95;1.67;;;;;;;;;;5107490;28;20071;-75
2023/12/01 08:40:58;;;;;;;0.57;0.57;;;;;;;;;;5110995;28;20068;-72
2023/12/01 08:43:24;;;;;;;0.40;0.40;;;;;;;;;;5111370;28;20027;-73
2023/12/01 08:45:53;;;;;;;0.38;0.38;;;;;;;;;;5110612;28;20032;-73
2023/12/01 08:48:20;;;;;;;5.47;3.17;;;;;;;;;;5104902;28;20024;-73
2023/12/01 08:50:52;;;;;;;6.65;0.82;;;;;;;;;;5105753;28;20494;-74
2023/12/01 08:53:38;;;;;;;9.25;1.25;;;;;;;;;;5087068;28;20110;-74
2023/12/01 08:56:10;;;;;;;0.20;0.20;;;;;;;;;;5107894;28;20030;-74
2023/12/01 08:59:09;;;;;;;0.20;0.20;;;;;;;;;;5109934;28;20441;-75
2023/12/01 09:01:40;;;;;;;0.40;0.40;;;;;;;;;;5124228;27;20084;-74
2023/12/01 09:08:55;;;;;;;3.13;0.85;;;;;;;;;;5031946;28;20281;-74
2023/12/01 09:11:24;;;;;;;0.28;0.28;;;;;;;;;;5053687;28;20534;-74
2023/12/01 09:14:15;;;;;;;0.38;0.38;;;;;;;;;;5069214;28;20491;-71
2023/12/01 09:16:48;;;;;;;0.20;0.20;;;;;;;;;;5075428;28;20479;-73
2023/12/01 09:19:18;;;;;;;2.92;1.38;;;;;;;;;;5053818;28;20548;-73
2023/12/01 09:21:59;;;;;;;10.52;2.33;;;;;;;;;;5049937;28;20033;-74
2023/12/01 09:24:31;;;;;;;6.60;1.38;;;;;;;;;;5052803;28;20025;-74
2023/12/01 09:26:58;;;;;;;1.27;0.77;;;;;;;;;;5050542;28;20017;-73
2023/12/01 09:29:24;;;;;;;15.45;2.22;;;;;;;;;;5048879;28;20040;-73
2023/12/01 09:31:50;;;;;;;2.83;1.38;;;;;;;;;;5049274;28;20025;-74
2023/12/01 09:34:16;;;;;;;9.60;2.17;;;;;;;;;;5049159;28;20028;-74
2023/12/01 09:36:42;;;;;;;10.60;2.25;;;;;;;;;;5049356;28;20526;-72
2023/12/01 09:39:08;;;;;;;15.60;5.30;;;;;;;;;;5049688;28;20496;-75
2023/12/01 09:41:35;;;;;;;30.67;4.30;;;;;;;;;;5057745;28;20111;-75
2023/12/01 09:44:01;;;;;;;15.02;2.83;;;;;;;;;;5068714;28;20036;-71
2023/12/01 09:46:34;;;;;;;17.10;2.90;;;;;;;;;;5069304;28;20082;-74
2023/12/01 09:49:10;;;;;;;14.18;2.30;;;;;;;;;;5064695;28;20036;-74
2023/12/01 09:51:54;;;;;;;11.18;2.92;;;;;;;;;;5061364;28;20067;-74
2023/12/01 09:54:52;;;;;;;11.73;1.92;;;;;;;;;;5049385;28;20025;-74
2023/12/01 09:57:20;;;;;;;9.50;3.55;;;;;;;;;;5004101;28;20620;-74
2023/12/01 09:59:47;;;;;;;12.18;2.60;;;;;;;;;;5064409;28;20040;-74
2023/12/01 10:02:13;;;;;;;4.80;1.63;;;;;;;;;;5049031;28;20078;-74
2023/12/01 10:04:39;;;;;;;25.58;4.60;;;;;;;;;;5049454;28;20040;-75
2023/12/01 10:07:05;;;;;;;11.15;2.28;;;;;;;;;;5048741;28;20032;-75
2023/12/01 10:09:38;;;;;;;10.25;2.90;;;;;;;;;;5067343;28;20048;-74
2023/12/01 10:12:29;;;;;;;9.43;1.85;;;;;;;;;;5098518;28;20039;-75
2023/12/01 10:14:55;;;;;;;13.55;3.08;;;;;;;;;;5100953;28;20031;-75
2023/12/01 10:17:27;;;;;;;10.30;2.20;;;;;;;;;;5094901;28;20043;-75
2023/12/01 10:20:18;;;;;;;1.98;0.85;;;;;;;;;;5106111;28;20024;-74
2023/12/01 10:22:46;;;;;;;7.00;2.22;;;;;;;;;;5105941;28;20462;-75
2023/12/01 10:25:13;;;;;;;8.10;1.37;;;;;;;;;;5101195;28;20023;-73
2023/12/01 10:27:39;;;;;;;0.52;0.38;;;;;;;;;;5109474;28;20293;-75
2023/12/01 10:30:13;;;;;;;18.50;3.17;;;;;;;;;;5102537;28;20024;-75
2023/12/01 10:32:42;;;;;;;22.27;3.55;;;;;;;;;;5087556;28;20458;-73
2023/12/01 10:35:09;;;;;;;18.40;3.13;;;;;;;;;;5088770;28;20077;-75
2023/12/01 10:37:47;;;;;;;12.07;1.70;;;;;;;;;;5088923;28;20014;-76
2023/12/01 10:40:38;;;;;;;26.00;3.70;;;;;;;;;;5089780;28;20067;-74
2023/12/01 10:43:04;;;;;;;5.32;1.73;;;;;;;;;;5112949;28;20071;-74
2023/12/01 10:45:31;;;;;;;13.90;2.05;;;;;;;;;;5094529;28;20020;-74
2023/12/01 10:48:24;;;;;;;14.77;2.72;;;;;;;;;;5094642;28;20059;-74
2023/12/01 10:50:52;;;;;;;3.20;0.73;;;;;;;;;;5093774;28;20537;-76
2023/12/01 10:53:19;;;;;;;4.78;0.63;;;;;;;;;;5113089;28;20019;-73
2023/12/01 10:55:46;;;;;;;9.10;2.22;;;;;;;;;;5112091;28;20027;-74
2023/12/01 10:58:15;;;;;;;6.82;1.45;;;;;;;;;;5108853;28;20099;-74
2023/12/01 11:00:41;;;;;;;20.88;1.85;;;;;;;;;;5099982;28;20052;-75
2023/12/01 11:03:12;;;;;;;6.15;1.02;;;;;;;;;;5091990;28;20280;-75
2023/12/01 11:06:10;;;;;;;14.20;2.47;;;;;;;;;;5091757;28;20028;-75
2023/12/01 11:12:02;;;;;;;21.73;2.83;;;;;;;;;;5058892;28;20051;-75
2023/12/01 11:14:37;;;;;;;11.43;1.98;;;;;;;;;;5072063;28;20024;-75
2023/12/01 11:17:04;;;;;;;7.97;1.85;;;;;;;;;;5070989;28;20055;-75
2023/12/01 11:19:59;;;;;;;14.43;2.15;;;;;;;;;;5070303;28;20060;-74
2023/12/01 11:22:27;;;;;;;7.47;2.00;;;;;;;;;;5052534;28;20529;-73
2023/12/01 11:24:54;;;;;;;21.00;3.20;;;;;;;;;;5070535;28;20028;-74
2023/12/01 11:27:20;;;;;;;20.23;5.88;;;;;;;;;;5063230;28;20078;-74
2023/12/01 11:30:08;;;;;;;3.35;0.60;;;;;;;;;;5071801;28;20032;-75
2023/12/01 11:32:41;;;;;;;22.25;3.80;;;;;;;;;;5054744;28;20058;-74
2023/12/01 11:35:09;;;;;;;4.40;1.90;;;;;;;;;;5049925;28;20025;-73
2023/12/01 11:37:54;;;;;;;0.98;0.90;;;;;;;;;;5051429;28;20029;-70
2023/12/01 11:40:35;;;;;;;4.60;1.55;;;;;;;;;;5051490;28;20025;-75
2023/12/01 11:43:13;;;;;;;16.75;2.05;;;;;;;;;;5065113;28;20037;-75
2023/12/01 11:45:42;;;;;;;30.75;3.80;;;;;;;;;;5070897;28;20063;-72
2023/12/01 11:48:10;;;;;;;4.40;1.02;;;;;;;;;;5071745;28;20028;-73
2023/12/01 11:50:40;;;;;;;4.40;0.93;;;;;;;;;;5071149;28;20108;-74
2023/12/01 11:53:18;;;;;;;7.00;2.00;;;;;;;;;;5062554;28;20024;-75
2023/12/01 11:55:54;;;;;;;1.65;1.10;;;;;;;;;;5049682;28;20025;-76
2023/12/01 11:58:21;;;;;;;6.20;1.23;;;;;;;;;;5053134;28;20052;-74
2023/12/01 12:01:24;;;;;;;0.63;0.55;;;;;;;;;;5060547;28;20484;-75
2023/12/01 12:03:56;;;;;;;0.30;0.30;;;;;;;;;;4989152;28;20066;-75
2023/12/01 12:06:23;;;;;;;15.60;2.03;;;;;;;;;;5046599;28;20048;-75
2023/12/01 12:08:50;;;;;;;3.67;0.60;;;;;;;;;;5072469;28;20025;-75
2023/12/01 12:11:17;;;;;;;9.35;1.33;;;;;;;;;;5111023;28;20081;-76
2023/12/01 12:14:01;;;;;;;8.02;1.60;;;;;;;;;;5111066;28;20041;-74
2023/12/01 12:20:52;;;;;;;20.83;1.55;;;;;;;;;;5020445;28;20063;-74
2023/12/01 12:23:55;;;;;;;8.40;1.70;;;;;;;;;;5101612;27;20028;-75
2023/12/01 12:26:22;;;;;;;11.43;2.17;;;;;;;;;;5110593;28;20542;-75
2023/12/01 12:28:50;;;;;;;8.23;1.63;;;;;;;;;;5110883;28;20028;-76
2023/12/01 12:31:17;;;;;;;11.75;2.50;;;;;;;;;;5101708;28;20096;-75
2023/12/01 12:33:50;;;;;;;2.15;2.05;;;;;;;;;;5096969;28;20348;-74
2023/12/01 12:36:51;;;;;;;7.78;1.30;;;;;;;;;;5104077;28;20032;-76
2023/12/01 12:39:43;;;;;;;0.30;0.30;;;;;;;;;;5093316;28;20394;-75
2023/12/01 12:42:14;;;;;;;25.83;3.25;;;;;;;;;;5110620;28;20474;-76
2023/12/01 12:44:42;;;;;;;11.70;1.73;;;;;;;;;;5110712;28;20028;-76
2023/12/01 12:47:09;;;;;;;0.30;0.30;;;;;;;;;;5110840;28;20131;-75
2023/12/01 12:49:35;;;;;;;1.95;0.70;;;;;;;;;;5110719;28;20493;-76
2023/12/01 12:52:02;;;;;;;14.00;2.33;;;;;;;;;;5110294;28;20040;-75
2023/12/01 12:54:29;;;;;;;7.57;2.00;;;;;;;;;;5110430;28;20019;-76
2023/12/01 12:56:55;;;;;;;13.45;2.30;;;;;;;;;;5110765;28;20455;-76
2023/12/01 12:59:22;;;;;;;15.80;1.60;;;;;;;;;;5105806;28;20055;-75
2023/12/01 13:01:48;;;;;;;9.63;1.33;;;;;;;;;;5091843;28;20043;-75
2023/12/01 13:04:18;;;;;;;6.90;1.75;;;;;;;;;;5074670;28;20019;-76
2023/12/01 13:06:44;;;;;;;7.15;2.08;;;;;;;;;;5108735;28;20027;-75
2023/12/01 13:09:10;;;;;;;0.20;0.20;;;;;;;;;;5110186;28;20086;-75
2023/12/01 13:11:36;;;;;;;7.53;1.67;;;;;;;;;;5091809;28;20028;-75
2023/12/01 13:14:12;;;;;;;;;;;;;;;;;;5110891;28;20099;-76
2023/12/01 13:16:59;;;;;;;13.68;1.10;;;;;;;;;;5110100;28;19915;-74
2023/12/01 13:20:07;;;;;;;8.75;1.58;;;;;;;;;;5109916;28;20039;-76
2023/12/01 13:22:43;;;;;;;17.67;3.45;;;;;;;;;;5110300;28;20040;-76
2023/12/01 13:25:10;;;;;;;9.27;2.25;;;;;;;;;;5106402;28;20470;-75
2023/12/01 13:27:36;;;;;;;1.85;0.55;;;;;;;;;;5095405;28;20067;-75
2023/12/01 13:30:03;;;;;;;9.48;2.63;;;;;;;;;;5089547;28;20069;-76
2023/12/01 13:32:33;;;;;;;8.98;1.75;;;;;;;;;;5089316;28;20043;-73
2023/12/01 13:34:59;;;;;;;13.30;2.13;;;;;;;;;;5090038;28;20032;-74
2023/12/01 13:37:25;;;;;;;9.07;2.15;;;;;;;;;;5095339;28;20530;-75
2023/12/01 13:39:51;;;;;;;14.88;1.65;;;;;;;;;;5110034;28;20122;-75
2023/12/01 13:42:18;;;;;;;10.45;1.73;;;;;;;;;;5109724;28;20371;-73
2023/12/01 13:44:43;;;;;;;29.15;2.75;;;;;;;;;;5091677;28;20026;-71
2023/12/01 13:47:34;;;;;;;2.65;0.55;;;;;;;;;;5109941;28;20293;-75
2023/12/01 13:50:00;;;;;;;5.85;0.95;;;;;;;;;;5109452;28;20048;-74
2023/12/01 13:52:27;;;;;;;12.90;2.28;;;;;;;;;;5109834;28;20032;-75
2023/12/01 13:54:53;;;;;;;22.10;3.80;;;;;;;;;;5109479;28;20056;-74
2023/12/01 13:57:20;;;;;;;6.40;1.00;;;;;;;;;;5109753;28;20023;-74
2023/12/01 14:02:46;;;;;;;4.72;4.05;;;;;;;;;;5069506;28;20058;-76
2023/12/01 14:05:14;;;;;;;10.15;1.75;;;;;;;;;;5100317;28;20038;-71
2023/12/01 14:07:40;;;;;;;9.32;2.78;;;;;;;;;;5093081;28;20119;-75
2023/12/01 14:10:08;;;;;;;12.13;3.40;;;;;;;;;;5107878;28;20062;-75
2023/12/01 14:12:34;;;;;;;14.07;2.50;;;;;;;;;;5086734;28;20077;-75
2023/12/01 14:15:00;;;;;;;6.63;3.42;;;;;;;;;;5073763;28;20024;-74
2023/12/01 14:17:27;;;;;;;16.95;3.25;;;;;;;;;;5093028;28;20084;-74
2023/12/01 14:19:53;;;;;;;12.23;1.60;;;;;;;;;;5092910;28;20382;-71
2023/12/01 14:22:19;;;;;;;5.68;2.10;;;;;;;;;;5093570;28;20031;-76
2023/12/01 14:24:46;;;;;;;6.22;1.95;;;;;;;;;;5092971;28;20024;-73
2023/12/01 14:27:13;;;;;;;1.83;1.58;;;;;;;;;;5086588;28;20472;-76
2023/12/01 14:29:39;;;;;;;0.20;0.20;;;;;;;;;;5071267;28;20407;-77
2023/12/01 14:32:10;;;;;;;8.18;1.23;;;;;;;;;;5072261;28;20480;-74
2023/12/01 14:34:36;;;;;;;11.93;2.35;;;;;;;;;;5076323;28;20491;-76
2023/12/01 14:37:03;;;;;;;4.00;0.75;;;;;;;;;;5078272;28;20039;-74
2023/12/01 14:39:30;;;;;;;1.45;0.73;;;;;;;;;;5083125;28;20045;-75
2023/12/01 14:41:56;;;;;;;1.65;0.75;;;;;;;;;;5072226;28;20031;-73
2023/12/01 14:44:22;;;;;;;0.88;0.60;;;;;;;;;;5072995;28;20055;-72
2023/12/01 14:46:49;;;;;;;4.65;0.32;;;;;;;;;;5074563;28;20028;-76
2023/12/01 14:49:15;;;;;;;0.32;0.30;;;;;;;;;;5082465;28;20056;-74
2023/12/01 14:51:41;;;;;;;3.97;1.77;;;;;;;;;;5072174;28;20480;-75
2023/12/01 14:54:08;;;;;;;6.50;2.38;;;;;;;;;;5077446;28;20024;-76
2023/12/01 14:56:35;;;;;;;0.20;0.20;;;;;;;;;;5074010;28;20021;-75
2023/12/01 14:59:04;;;;;;;10.40;7.50;;;;;;;;;;5082070;28;20514;-76
2023/12/01 15:01:35;;;;;;;4.88;0.68;;;;;;;;;;5080480;28;20472;-76
2023/12/01 15:04:01;;;;;;;2.42;1.70;;;;;;;;;;5079068;28;20474;-75
2023/12/01 15:06:51;;;;;;;3.88;1.35;;;;;;;;;;5080475;28;20346;-74
2023/12/01 15:09:24;;;;;;;1.42;1.08;;;;;;;;;;5083718;28;20043;-74
2023/12/01 15:12:00;;;;;;;1.17;1.00;;;;;;;;;;5090918;28;20102;-71
2023/12/01 15:14:26;;;;;;;8.93;1.50;;;;;;;;;;5101790;27;20027;-75
2023/12/01 15:16:53;;;;;;;2.40;0.65;;;;;;;;;;5094676;28;20038;-75
2023/12/01 15:19:22;;;;;;;1.02;0.52;;;;;;;;;;5112410;28;20069;-74
2023/12/01 15:21:49;;;;;;;0.20;0.20;;;;;;;;;;5075713;28;20402;-74